Time;durP1;ratioP1;P1;durP2;ratioP2;P2;SDS_P1;SDS_P2;PMS_P1;PMS_P2;Temp;Humidity;BMP_temperature;BMP_pressure;BME280_temperature;BME280_humidity;BME280_pressure;Samples;Min_cycle;Max_cycle;Signal;HPM_P1;HPM_P2
2022/02/07 00:02:10;;;;;;;1.05;0.20;;;;;;;4.67;100.00;99612.88;20925534;28;20049;-78
2022/02/07 00:12:12;;;;;;;0.85;0.20;;;;;;;4.57;100.00;99573.19;20914595;28;20044;-79
2022/02/07 00:22:13;;;;;;;1.85;0.30;;;;;;;4.48;100.00;99562.00;20896498;28;20417;-79
2022/02/07 00:32:15;;;;;;;0.90;0.40;;;;;;;4.38;100.00;99587.94;20934113;28;20045;-80
2022/02/07 00:42:29;;;;;;;0.52;0.10;;;;;;;4.33;100.00;99623.38;20959722;28;20048;-79
2022/02/07 00:52:30;;;;;;;1.45;0.50;;;;;;;4.42;100.00;99668.28;20929072;28;20052;-79
2022/02/07 01:02:32;;;;;;;1.67;0.45;;;;;;;4.31;100.00;99692.50;20934168;28;20106;-79
2022/02/07 01:53:54;;;;;;;2.63;0.43;;;;;;;4.33;99.76;99918.81;20909219;28;20052;-79
2022/02/07 02:03:55;;;;;;;2.85;0.65;;;;;;;4.42;98.37;99943.03;20899394;28;20045;-79
2022/02/07 02:54:58;;;;;;;4.40;0.85;;;;;;;3.92;98.14;100055.13;20898431;28;20045;-80
2022/02/07 03:04:59;;;;;;;7.18;0.90;;;;;;;4.13;97.11;100109.66;20912115;28;20357;-79
2022/02/07 03:16:36;;;;;;;3.28;0.50;;;;;;;3.30;98.37;100225.47;20922054;28;20059;-79
2022/02/07 03:25:22;;;;;;;2.33;0.30;;;;;;;2.30;100.00;100256.94;20890786;28;20045;-81
2022/02/07 03:35:24;;;;;;;2.08;0.43;;;;;;;2.39;100.00;100255.31;20914826;28;20041;-80
2022/02/07 03:45:26;;;;;;;0.52;0.20;;;;;;;2.46;100.00;100303.66;20914562;28;20041;-81
2022/02/07 03:55:27;;;;;;;1.98;0.60;;;;;;;2.64;100.00;100347.91;20945650;28;20056;-80
2022/02/07 04:15:36;;;;;;;3.60;0.60;;;;;;;2.48;100.00;100410.50;20930391;28;20053;-80
2022/02/07 04:25:37;;;;;;;5.15;0.73;;;;;;;2.46;100.00;100427.72;20924238;28;20056;-80
2022/02/07 04:35:39;;;;;;;2.97;0.60;;;;;;;2.07;100.00;100475.22;20940503;28;20044;-80
2022/02/07 04:46:00;;;;;;;2.75;0.65;;;;;;;1.83;100.00;100497.94;20936700;28;20472;-80
2022/02/07 05:16:40;;;;;;;5.47;1.25;;;;;;;1.60;100.00;100604.13;20924334;28;20041;-80
2022/02/07 05:26:41;;;;;;;6.63;1.20;;;;;;;1.57;100.00;100635.00;20925791;28;20045;-80
2022/02/07 05:36:45;;;;;;;8.43;1.92;;;;;;;1.48;100.00;100658.88;20916705;28;20041;-80
2022/02/07 05:46:46;;;;;;;17.20;4.93;;;;;;;1.43;100.00;100685.38;20940080;28;20040;-81
2022/02/07 05:56:47;;;;;;;7.38;1.80;;;;;;;1.38;100.00;100733.41;20919133;28;20045;-80
2022/02/07 06:06:49;;;;;;;4.10;1.35;;;;;;;1.33;100.00;100763.38;20938061;28;20044;-81
2022/02/07 06:16:51;;;;;;;5.03;1.23;;;;;;;1.25;100.00;100786.41;20947865;28;20045;-80
2022/02/07 06:26:52;;;;;;;13.60;1.80;;;;;;;1.19;100.00;100801.69;20919491;28;20102;-80
2022/02/07 06:36:54;;;;;;;7.65;1.42;;;;;;;1.22;100.00;100820.69;20923148;28;20486;-81
2022/02/07 06:46:55;;;;;;;9.00;1.25;;;;;;;1.28;100.00;100836.34;20897302;28;20575;-81
2022/02/07 06:56:58;;;;;;;8.05;1.88;;;;;;;1.40;100.00;100866.81;20919115;28;20037;-82
2022/02/07 07:07:00;;;;;;;9.60;1.52;;;;;;;1.56;100.00;100893.03;20917591;28;20571;-81
2022/02/07 07:17:04;;;;;;;8.65;1.55;;;;;;;1.78;100.00;100922.09;20912278;28;20137;-80
2022/02/07 07:27:07;;;;;;;7.93;1.52;;;;;;;2.05;99.32;100939.16;20922237;28;20080;-79
2022/02/07 07:37:09;;;;;;;14.45;1.95;;;;;;;2.13;98.26;100949.72;20925127;28;20112;-80
2022/02/07 07:47:17;;;;;;;7.22;1.95;;;;;;;1.99;100.00;100982.91;20924462;28;20041;-80
2022/02/07 08:07:40;;;;;;;11.95;2.45;;;;;;;1.76;100.00;101027.00;20917965;28;20556;-80
2022/02/07 08:17:42;;;;;;;9.50;2.20;;;;;;;2.09;100.00;101052.06;20937890;28;20091;-80
2022/02/07 08:27:49;;;;;;;6.18;2.05;;;;;;;2.74;100.00;101076.31;20925465;28;20052;-79
2022/02/07 08:37:50;;;;;;;11.95;2.00;;;;;;;3.40;98.12;101070.19;20926207;28;20041;-80
2022/02/07 08:47:56;;;;;;;12.30;1.80;;;;;;;3.60;95.89;101119.88;20913543;28;20041;-79
2022/02/07 08:58:48;;;;;;;8.75;2.17;;;;;;;3.85;92.75;101137.75;20940662;28;20094;-81
2022/02/07 09:08:54;;;;;;;10.48;2.92;;;;;;;4.24;90.61;101157.63;20896182;28;20067;-80
2022/02/07 09:19:00;;;;;;;10.10;2.47;;;;;;;4.46;88.82;101169.34;20919580;28;20048;-81
2022/02/07 09:29:02;;;;;;;10.90;3.22;;;;;;;4.64;89.78;101171.44;20906742;28;20037;-81
2022/02/07 09:39:05;;;;;;;14.07;3.08;;;;;;;5.03;86.39;101178.25;20896142;28;20037;-80
2022/02/07 09:49:06;;;;;;;10.38;3.13;;;;;;;5.28;82.82;101195.19;20904392;28;20049;-81
2022/02/07 09:59:09;;;;;;;12.00;2.70;;;;;;;5.34;80.85;101213.50;20913457;28;20387;-81
2022/02/07 10:19:30;;;;;;;7.85;2.08;;;;;;;5.44;79.60;101227.50;20901003;28;20536;-81
2022/02/07 10:40:10;;;;;;;10.43;1.50;;;;;;;6.03;70.26;101257.16;20881529;28;20452;-80
2022/02/07 10:50:15;;;;;;;10.00;2.10;;;;;;;6.45;70.91;101292.50;20900348;28;20067;-81
2022/02/07 11:00:26;;;;;;;9.50;1.83;;;;;;;5.89;68.91;101347.88;20891954;28;20048;-80
2022/02/07 11:11:01;;;;;;;10.87;2.17;;;;;;;5.89;70.64;101371.28;20916877;28;20048;-82
2022/02/07 11:21:20;;;;;;;7.20;1.40;;;;;;;5.96;69.69;101379.22;20905975;28;20049;-82
2022/02/07 11:31:31;;;;;;;11.88;1.85;;;;;;;6.07;70.64;101398.47;20913394;28;20131;-81
2022/02/07 11:41:55;;;;;;;9.55;1.85;;;;;;;6.03;70.58;101413.13;20925385;28;20041;-80
2022/02/07 11:51:59;;;;;;;11.95;1.75;;;;;;;5.88;71.75;101439.69;20906322;28;20126;-80
2022/02/07 12:02:07;;;;;;;11.60;2.28;;;;;;;6.11;72.03;101441.91;20911951;28;20041;-80
2022/02/07 12:12:49;;;;;;;8.15;1.83;;;;;;;6.10;70.41;101460.94;20924093;28;20044;-80
2022/02/07 12:23:10;;;;;;;9.75;2.33;;;;;;;6.08;69.42;101467.81;20990888;22;20040;-84
2022/02/07 12:33:12;;;;;;;8.85;2.03;;;;;;;6.13;67.77;101466.19;21068030;28;20118;-84
2022/02/07 12:43:26;;;;;;;10.60;2.22;;;;;;;6.37;66.75;101466.69;21060252;28;20043;-84
2022/02/07 12:53:29;;;;;;;9.52;2.00;;;;;;;6.50;67.29;101487.72;21079092;28;20059;-83
2022/02/07 13:03:31;;;;;;;7.45;2.13;;;;;;;6.60;68.29;101485.28;21080128;28;20488;-83
2022/02/07 13:13:38;;;;;;;8.65;2.10;;;;;;;6.69;70.44;101490.66;21059384;28;20047;-84
2022/02/07 13:23:44;;;;;;;9.40;1.90;;;;;;;6.59;67.59;101482.66;21056862;28;20046;-84
2022/02/07 13:33:50;;;;;;;15.07;3.10;;;;;;;6.76;69.47;101496.88;21077392;28;20040;-84
2022/02/07 13:43:52;;;;;;;9.95;2.05;;;;;;;6.55;66.33;101512.97;21085316;28;20040;-84
2022/02/07 13:53:56;;;;;;;10.10;1.85;;;;;;;6.70;64.29;101535.78;21065117;28;20064;-84
2022/02/07 14:03:58;;;;;;;9.65;2.00;;;;;;;6.56;63.15;101545.94;21068297;28;20036;-84
2022/02/07 14:14:05;;;;;;;9.80;1.40;;;;;;;6.50;63.38;101560.56;21066584;28;20044;-84
2022/02/07 14:24:07;;;;;;;7.93;1.52;;;;;;;6.37;63.38;101573.34;21077715;28;20052;-84
2022/02/07 14:34:28;;;;;;;9.18;1.88;;;;;;;6.47;64.89;101578.69;21062372;28;20416;-84
2022/02/07 14:44:31;;;;;;;10.02;1.95;;;;;;;6.49;65.99;101577.03;21074295;28;20063;-83
2022/02/07 14:54:34;;;;;;;8.95;2.20;;;;;;;6.56;67.53;101586.69;21077237;28;20092;-84
2022/02/07 15:04:35;;;;;;;13.07;2.40;;;;;;;6.87;63.66;101595.97;21075898;28;20043;-84
2022/02/07 15:14:36;;;;;;;6.13;1.95;;;;;;;6.64;66.19;101600.72;21081167;28;20044;-83
2022/02/07 15:24:38;;;;;;;8.13;2.72;;;;;;;6.79;64.11;101603.63;21063997;28;20036;-83
2022/02/07 15:34:39;;;;;;;10.50;1.90;;;;;;;6.71;64.54;101615.63;21089883;28;20102;-81
2022/02/07 15:44:41;;;;;;;7.97;2.00;;;;;;;6.58;61.87;101626.66;21074762;28;20048;-83
2022/02/07 15:54:45;;;;;;;14.77;3.38;;;;;;;6.32;63.23;101634.75;21065890;28;20052;-83
2022/02/07 16:04:46;;;;;;;7.85;2.58;;;;;;;6.19;64.54;101643.16;21075406;28;20094;-83
2022/02/07 16:14:49;;;;;;;7.78;1.70;;;;;;;6.04;63.93;101633.31;21082548;28;20040;-83
2022/02/07 16:24:51;;;;;;;8.90;1.80;;;;;;;5.76;62.25;101656.88;21084534;28;20093;-83
2022/02/07 16:34:52;;;;;;;9.10;1.95;;;;;;;5.42;65.08;101661.22;21064421;28;20095;-83
2022/02/07 16:45:02;;;;;;;11.70;3.17;;;;;;;5.01;68.09;101667.91;21066944;28;20040;-83
2022/02/07 16:55:04;;;;;;;13.63;3.70;;;;;;;4.77;70.53;101678.50;21083653;28;20040;-83
2022/02/07 17:05:05;;;;;;;17.17;3.75;;;;;;;4.74;69.96;101693.97;21081525;28;20040;-83
2022/02/07 17:15:07;;;;;;;13.35;3.90;;;;;;;4.41;72.30;101693.84;21081812;28;20048;-83
2022/02/07 17:25:10;;;;;;;14.00;2.90;;;;;;;4.32;73.04;101705.72;21083223;28;20240;-84
2022/02/07 17:35:12;;;;;;;11.60;3.40;;;;;;;4.16;75.36;101697.41;21074261;28;20591;-82
2022/02/07 17:45:20;;;;;;;13.63;2.85;;;;;;;3.94;75.64;101688.09;21068392;28;20036;-83
2022/02/07 17:55:21;;;;;;;8.38;3.03;;;;;;;3.73;77.77;101702.09;21081935;28;20481;-83
2022/02/07 18:05:31;;;;;;;6.20;2.20;;;;;;;3.49;77.24;101707.34;21063600;28;20074;-82
2022/02/07 18:15:32;;;;;;;10.35;3.08;;;;;;;3.57;76.58;101717.97;21082192;28;20052;-82
2022/02/07 18:25:34;;;;;;;12.27;4.13;;;;;;;3.40;77.73;101737.19;21083747;28;20064;-80
2022/02/07 18:35:38;;;;;;;15.05;4.20;;;;;;;3.10;81.76;101761.16;21086763;28;20067;-79
2022/02/07 18:45:40;;;;;;;14.65;4.05;;;;;;;2.91;82.85;101756.16;21081393;28;20044;-80
2022/02/07 18:55:42;;;;;;;14.57;5.07;;;;;;;2.80;83.12;101771.28;21095885;28;20044;-79
2022/02/07 19:15:49;;;;;;;15.93;5.37;;;;;;;2.37;87.06;101759.28;21091309;28;20104;-80
2022/02/07 19:26:05;;;;;;;13.35;5.65;;;;;;;2.27;87.50;101765.78;21076856;28;20048;-81
2022/02/07 19:36:06;;;;;;;15.25;3.85;;;;;;;2.27;86.30;101776.13;21098951;28;20055;-81
2022/02/07 19:46:08;;;;;;;17.98;3.95;;;;;;;2.26;87.38;101789.88;21093426;28;20048;-80
2022/02/07 19:56:12;;;;;;;12.50;3.30;;;;;;;2.31;86.52;101796.09;21076958;28;20047;-79
2022/02/07 20:06:14;;;;;;;12.63;3.70;;;;;;;2.41;85.08;101794.75;21054263;28;20052;-80
2022/02/07 20:16:19;;;;;;;8.93;3.33;;;;;;;2.39;84.62;101811.03;21085281;28;20067;-80
2022/02/07 20:26:21;;;;;;;22.50;9.43;;;;;;;2.42;85.35;101818.91;21068395;28;20493;-80
2022/02/07 20:47:56;;;;;;;8.60;3.00;;;;;;;2.38;85.11;101848.91;21089454;28;20028;-80
2022/02/07 20:58:03;;;;;;;10.75;2.58;;;;;;;2.31;87.38;101860.72;21066088;28;20462;-80
2022/02/07 21:08:25;;;;;;;12.98;4.03;;;;;;;2.31;85.77;101865.00;21060122;28;20050;-79
2022/02/07 21:18:26;;;;;;;12.45;3.10;;;;;;;2.41;86.07;101882.66;21080884;28;20089;-79
2022/02/07 21:28:28;;;;;;;19.73;5.20;;;;;;;2.50;86.05;101892.50;21068236;28;20462;-79
2022/02/07 21:38:30;;;;;;;12.95;3.22;;;;;;;2.47;85.38;101911.34;21066648;28;20044;-79
2022/02/07 21:48:32;;;;;;;20.33;5.45;;;;;;;2.64;86.54;101912.03;21071744;28;20048;-80
2022/02/07 21:58:34;;;;;;;10.07;3.38;;;;;;;2.91;82.95;101922.59;21070764;28;20055;-80
2022/02/07 22:08:36;;;;;;;13.60;3.65;;;;;;;3.00;81.59;101919.50;21070429;28;20051;-80
2022/02/07 22:18:38;;;;;;;17.38;4.72;;;;;;;3.13;81.73;101923.44;21062423;28;20052;-80
2022/02/07 22:28:42;;;;;;;14.95;3.80;;;;;;;3.13;81.31;101937.28;21085165;28;20040;-80
2022/02/07 22:38:45;;;;;;;10.53;3.40;;;;;;;3.18;79.81;101933.16;21074741;28;20040;-80
2022/02/07 22:48:47;;;;;;;13.20;3.35;;;;;;;3.20;81.87;101946.16;21068145;28;20040;-80
2022/02/07 22:58:50;;;;;;;13.00;3.40;;;;;;;3.29;81.31;101944.78;21065310;28;20408;-80
2022/02/07 23:39:35;;;;;;;9.70;3.10;;;;;;;3.25;84.32;101966.19;21079663;28;20032;-81
2022/02/07 23:49:53;;;;;;;13.38;3.20;;;;;;;3.29;83.10;101951.69;21066611;28;20048;-81
